Terminal Aerodrome Forecast
Issued by NWS

Home | Current Version | Previous Version | Text Only | Print | Product List | Glossary On
Versions: 1 2 3 4 5 6 7 8 9 10 11 12 13
703
FTAK31 PAJN 012335
TAFAPG
TAF
PAPG 012335Z 0200/0224 VRB04KT 6SM -RA FEW008 BKN025 OVC040
      TEMPO 0200/0204 3SM RA BR SCT006 OVC015
     FM020400 10006KT 2SM RA BR OVC008
     FM021200 14008KT 3SM -RA BR OVC010
     FM021800 14007KT 4SM -RA BR SCT015 OVC025
      AMD LTD TO CLD VIS AND WIND 0206/0215=

USA.gov is the U.S. government's official web portal to all federal, state and local government web resources and services.